createdAt,value
2023-03-17T00:03:27.333Z,4.17
2023-03-17T00:08:32.511Z,4.25
2023-03-17T00:13:35.303Z,3.67
2023-03-17T00:23:39.647Z,3.40
2023-03-17T00:28:41.477Z,3.35
2023-03-17T00:33:45.234Z,3.03
2023-03-17T00:38:48.567Z,3.10
2023-03-17T00:43:50.811Z,3.70
2023-03-17T00:48:52.952Z,3.67
2023-03-17T00:53:55.057Z,3.13
2023-03-17T00:58:56.729Z,3.47
2023-03-17T01:03:58.407Z,3.35
2023-03-17T01:09:00.144Z,3.17
2023-03-17T01:14:01.831Z,3.10
2023-03-17T01:24:06.726Z,3.08
2023-03-17T01:29:08.589Z,3.00
2023-03-17T01:34:11.529Z,3.10
2023-03-17T01:44:19.216Z,2.50
2023-03-17T01:49:30.762Z,2.80
2023-03-17T01:54:39.737Z,2.90
2023-03-17T01:59:52.988Z,2.80
2023-03-17T02:04:55.236Z,2.75
2023-03-17T02:09:58.114Z,2.80
2023-03-17T02:15:00.719Z,2.80
2023-03-17T02:20:29.482Z,3.37
2023-03-17T02:25:34.458Z,2.55
2023-03-17T02:30:37.885Z,3.10
2023-03-17T02:35:40.821Z,2.90
2023-03-17T02:40:43.231Z,2.63
2023-03-17T02:45:45.166Z,3.17
2023-03-17T02:50:46.901Z,2.77
2023-03-17T02:55:48.831Z,2.40
2023-03-17T03:00:50.507Z,2.77
2023-03-17T03:05:52.247Z,2.40
2023-03-17T03:10:54.964Z,2.92
2023-03-17T03:20:58.491Z,3.42
2023-03-17T03:26:00.230Z,3.50
2023-03-17T03:31:01.965Z,3.30
2023-03-17T03:36:03.930Z,3.23
2023-03-17T03:41:06.355Z,2.88
2023-03-17T03:46:08.243Z,2.70
2023-03-17T03:51:10.431Z,2.83
2023-03-17T03:56:12.413Z,2.92
2023-03-17T04:01:14.473Z,3.00
2023-03-17T04:06:17.019Z,2.90
2023-03-17T04:16:20.593Z,2.67
2023-03-17T04:21:22.365Z,2.90
2023-03-17T04:26:24.261Z,2.80
2023-03-17T04:31:26.248Z,3.10
2023-03-17T04:36:28.135Z,2.97
2023-03-17T04:41:29.850Z,3.10
2023-03-17T04:46:31.804Z,4.37
2023-03-17T04:51:34.014Z,3.50
2023-03-17T04:56:36.208Z,3.08
2023-03-17T05:01:39.202Z,2.97
2023-03-17T05:06:41.167Z,3.25
2023-03-17T05:11:42.995Z,3.23
2023-03-17T05:16:47.820Z,2.97
2023-03-17T05:21:49.786Z,3.33
2023-03-17T05:31:53.949Z,3.05
2023-03-17T05:36:55.727Z,3.53
2023-03-17T05:41:58.044Z,3.42
2023-03-17T05:47:00.119Z,3.93
2023-03-17T05:52:01.997Z,3.60
2023-03-17T05:57:03.990Z,4.00
2023-03-17T06:02:05.848Z,4.23
2023-03-17T06:07:09.460Z,4.53
2023-03-17T06:12:11.371Z,4.90
2023-03-17T06:17:13.362Z,3.70
2023-03-17T06:22:15.993Z,4.57
2023-03-17T06:27:17.988Z,3.38
2023-03-17T06:32:21.082Z,3.30
2023-03-17T06:37:23.465Z,3.20
2023-03-17T06:42:25.166Z,4.32
2023-03-17T06:47:27.238Z,4.33
2023-03-17T06:52:28.983Z,4.40
2023-03-17T06:57:30.769Z,4.07
2023-03-17T07:02:33.737Z,4.53
2023-03-17T07:07:37.059Z,4.18
2023-03-17T07:12:39.258Z,4.15
2023-03-17T07:17:42.009Z,4.60
2023-03-17T07:27:45.870Z,5.53
2023-03-17T07:32:48.687Z,4.13
2023-03-17T07:37:50.627Z,3.80
2023-03-17T07:42:52.406Z,3.93
2023-03-17T07:47:54.168Z,4.07
2023-03-17T07:52:56.449Z,4.10
2023-03-17T07:57:58.965Z,3.83
2023-03-17T08:03:09.841Z,4.03
2023-03-17T08:08:12.682Z,4.05
2023-03-17T08:13:14.788Z,3.60
2023-03-17T08:18:16.558Z,3.40
2023-03-17T08:23:19.310Z,4.18
2023-03-17T08:28:20.994Z,3.53
2023-03-17T08:33:22.791Z,3.35
2023-03-17T08:38:25.939Z,3.58
2023-03-17T08:43:28.843Z,3.20
2023-03-17T08:58:39.821Z,2.90
2023-03-17T09:03:42.342Z,3.45
2023-03-17T09:08:45.074Z,3.15
2023-03-17T09:13:47.959Z,3.25
2023-03-17T09:18:49.814Z,2.90
2023-03-17T09:23:51.518Z,2.63
2023-03-17T09:28:53.159Z,2.90
2023-03-17T09:33:54.868Z,2.85
2023-03-17T09:38:56.557Z,2.70
2023-03-17T09:44:04.321Z,2.63
2023-03-17T09:49:13.920Z,2.60
2023-03-17T09:54:31.267Z,2.40
2023-03-17T09:59:42.023Z,2.53
2023-03-17T10:04:45.047Z,2.38
2023-03-17T10:09:58.165Z,2.47
2023-03-17T10:15:06.700Z,2.22
2023-03-17T10:20:13.482Z,2.70
2023-03-17T10:25:24.479Z,2.13
2023-03-17T10:30:27.379Z,2.70
2023-03-17T10:35:30.825Z,2.85
2023-03-17T10:40:33.087Z,2.30
2023-03-17T10:45:40.932Z,2.05
2023-03-17T10:50:48.630Z,2.20
2023-03-17T10:55:52.868Z,2.15
2023-03-17T11:01:05.719Z,2.03
2023-03-17T11:06:10.566Z,2.30
2023-03-17T11:11:25.150Z,2.20
2023-03-17T11:16:27.272Z,2.22
2023-03-17T11:21:32.571Z,2.42
2023-03-17T11:26:57.368Z,2.28
2023-03-17T11:32:25.355Z,2.38
2023-03-17T11:37:56.622Z,2.90
2023-03-17T11:43:17.947Z,2.70
2023-03-17T11:48:37.627Z,2.35
2023-03-17T11:53:59.768Z,2.60
2023-03-17T11:59:31.492Z,2.10
2023-03-17T12:04:37.944Z,2.30
2023-03-17T12:09:46.172Z,2.58
2023-03-17T12:14:52.307Z,2.45
2023-03-17T12:20:08.710Z,2.20
2023-03-17T12:25:21.288Z,2.97
2023-03-17T12:30:48.363Z,2.08
2023-03-17T12:35:50.896Z,2.22
2023-03-17T12:41:15.946Z,3.20
2023-03-17T12:46:37.745Z,2.88
2023-03-17T12:51:52.101Z,3.63
2023-03-17T12:57:02.241Z,2.17
2023-03-17T13:02:38.236Z,2.67
2023-03-17T13:07:51.138Z,1.92
2023-03-17T13:18:16.463Z,2.10
2023-03-17T13:23:24.235Z,1.80
2023-03-17T13:28:33.606Z,2.00
2023-03-17T13:33:41.898Z,1.85
2023-03-17T13:39:05.037Z,2.33
2023-03-17T13:44:30.200Z,2.20
2023-03-17T13:49:32.439Z,1.98
2023-03-17T13:54:41.142Z,2.23
2023-03-17T14:00:04.064Z,2.00
2023-03-17T14:05:17.202Z,2.20
2023-03-17T14:10:31.892Z,2.33
2023-03-17T14:15:56.319Z,2.50
2023-03-17T14:21:01.388Z,2.10
2023-03-17T14:26:05.058Z,2.20
2023-03-17T14:31:15.936Z,2.42
2023-03-17T14:36:18.288Z,2.20
2023-03-17T14:41:26.196Z,1.92
2023-03-17T14:46:33.997Z,1.92
2023-03-17T14:51:37.708Z,2.47
2023-03-17T14:56:48.709Z,2.00
2023-03-17T15:01:58.320Z,2.20
2023-03-17T15:07:03.665Z,2.00
2023-03-17T15:12:15.720Z,2.08
2023-03-17T15:17:21.095Z,1.97
2023-03-17T15:22:27.674Z,2.15
2023-03-17T15:27:31.641Z,1.80
2023-03-17T15:32:33.562Z,2.08
2023-03-17T15:37:35.480Z,2.00
2023-03-17T15:42:39.369Z,2.10
2023-03-17T15:47:43.125Z,2.20
2023-03-17T15:52:45.939Z,2.35
2023-03-17T15:57:54.675Z,2.10
2023-03-17T16:03:02.575Z,2.55
2023-03-17T16:08:04.315Z,2.60
2023-03-17T16:13:06.022Z,2.87
2023-03-17T16:18:14.771Z,2.30
2023-03-17T16:23:19.306Z,3.47
2023-03-17T16:28:26.033Z,2.00
2023-03-17T16:33:39.558Z,1.73
2023-03-17T16:38:41.342Z,2.10
2023-03-17T16:43:45.417Z,1.90
2023-03-17T16:48:49.577Z,1.77
2023-03-17T16:53:51.739Z,2.40
2023-03-17T16:58:53.411Z,3.83
2023-03-17T17:03:55.713Z,9.35
2023-03-17T17:08:57.708Z,4.65
2023-03-17T17:13:59.868Z,6.53
2023-03-17T17:19:02.974Z,3.38
2023-03-17T17:24:04.803Z,2.15
2023-03-17T17:29:06.555Z,3.13
2023-03-17T17:34:08.325Z,2.65
2023-03-17T17:39:11.241Z,1.67
2023-03-17T17:49:14.598Z,1.75
2023-03-17T17:54:16.371Z,1.50
2023-03-17T17:59:18.073Z,1.95
2023-03-17T18:04:22.374Z,1.88
2023-03-17T18:09:24.149Z,1.60
2023-03-17T18:14:26.524Z,1.70
2023-03-17T18:19:28.374Z,1.65
2023-03-17T18:24:30.139Z,1.60
2023-03-17T18:29:31.909Z,2.28
2023-03-17T18:34:44.878Z,2.40
2023-03-17T18:45:09.697Z,2.20
2023-03-17T18:50:19.963Z,1.90
2023-03-17T18:55:24.130Z,1.90
2023-03-17T19:00:26.550Z,2.40
2023-03-17T19:05:28.471Z,2.33
2023-03-17T19:10:31.400Z,2.80
2023-03-17T19:15:33.719Z,2.50
2023-03-17T19:20:36.272Z,2.30
2023-03-17T19:25:38.459Z,2.10
2023-03-17T19:30:40.491Z,2.23
2023-03-17T19:35:44.278Z,2.40
2023-03-17T19:40:46.184Z,2.25
2023-03-17T19:45:48.031Z,2.28
2023-03-17T19:50:50.269Z,2.65
2023-03-17T19:55:51.889Z,2.27
2023-03-17T20:00:53.687Z,2.10
2023-03-17T20:05:55.420Z,2.40
2023-03-17T20:10:57.284Z,2.60
2023-03-17T20:15:59.212Z,2.72
2023-03-17T20:21:05.363Z,3.08
2023-03-17T20:26:08.316Z,2.55
2023-03-17T20:31:10.467Z,2.67
2023-03-17T20:36:12.927Z,2.53
2023-03-17T20:41:17.556Z,2.80
2023-03-17T20:46:21.469Z,2.60
2023-03-17T20:51:23.184Z,2.90
2023-03-17T20:56:26.720Z,3.20
2023-03-17T21:01:29.312Z,3.22
2023-03-17T21:06:31.402Z,4.35
2023-03-17T21:11:33.348Z,4.17
2023-03-17T21:16:36.020Z,3.50
2023-03-17T21:21:37.778Z,4.10
2023-03-17T21:26:40.119Z,4.70
2023-03-17T21:31:42.334Z,4.75
2023-03-17T21:36:44.686Z,5.32
2023-03-17T21:41:48.755Z,4.03
2023-03-17T21:46:50.730Z,3.67
2023-03-17T21:51:52.764Z,3.60
2023-03-17T21:56:54.540Z,3.80
2023-03-17T22:01:56.683Z,4.40
2023-03-17T22:06:58.942Z,4.13
2023-03-17T22:12:00.797Z,4.20
2023-03-17T22:17:05.303Z,4.20
2023-03-17T22:22:07.007Z,3.75
2023-03-17T22:27:08.950Z,3.90
2023-03-17T22:32:10.962Z,3.90
2023-03-17T22:37:12.610Z,3.87
2023-03-17T22:42:14.261Z,3.47
2023-03-17T22:47:16.249Z,3.90
2023-03-17T22:52:18.943Z,4.70
2023-03-17T22:57:21.586Z,4.10
2023-03-17T23:02:23.295Z,4.47
2023-03-17T23:07:24.982Z,5.05
2023-03-17T23:12:28.197Z,4.55
2023-03-17T23:17:29.997Z,4.82
2023-03-17T23:22:32.616Z,4.55
2023-03-17T23:27:34.416Z,4.50
2023-03-17T23:32:36.601Z,4.57
2023-03-17T23:37:38.661Z,4.95
2023-03-17T23:42:40.973Z,4.63
2023-03-17T23:47:43.552Z,4.00
2023-03-17T23:52:45.297Z,4.95
2023-03-17T23:57:47.219Z,5.07
